sensor_id;sensor_type;location;lat;lon;timestamp;temperature;humidity
80230;DHT22;69540;42.136;24.742;2023-07-13T00:02:15;29.50;35.00
80230;DHT22;69540;42.136;24.742;2023-07-13T00:04:41;29.50;35.00
80230;DHT22;69540;42.136;24.742;2023-07-13T00:07:08;29.50;35.10
80230;DHT22;69540;42.136;24.742;2023-07-13T00:09:34;29.50;35.00
80230;DHT22;69540;42.136;24.742;2023-07-13T00:12:00;29.50;35.00
80230;DHT22;69540;42.136;24.742;2023-07-13T00:14:27;29.50;35.00
80230;DHT22;69540;42.136;24.742;2023-07-13T00:16:54;29.50;35.00
80230;DHT22;69540;42.136;24.742;2023-07-13T00:19:20;29.50;35.00
80230;DHT22;69540;42.136;24.742;2023-07-13T00:21:46;29.60;35.10
80230;DHT22;69540;42.136;24.742;2023-07-13T00:24:14;29.50;35.00
80230;DHT22;69540;42.136;24.742;2023-07-13T00:26:41;29.60;35.10
80230;DHT22;69540;42.136;24.742;2023-07-13T00:29:10;29.60;35.10
80230;DHT22;69540;42.136;24.742;2023-07-13T00:31:35;29.60;35.10
80230;DHT22;69540;42.136;24.742;2023-07-13T00:34:02;29.60;35.10
80230;DHT22;69540;42.136;24.742;2023-07-13T00:36:30;29.60;35.20
80230;DHT22;69540;42.136;24.742;2023-07-13T00:38:55;29.60;35.20
80230;DHT22;69540;42.136;24.742;2023-07-13T00:41:21;29.60;35.10
80230;DHT22;69540;42.136;24.742;2023-07-13T00:43:47;29.60;35.10
80230;DHT22;69540;42.136;24.742;2023-07-13T00:46:22;29.60;35.20
80230;DHT22;69540;42.136;24.742;2023-07-13T00:48:49;29.60;35.10
80230;DHT22;69540;42.136;24.742;2023-07-13T00:51:25;29.60;35.20
80230;DHT22;69540;42.136;24.742;2023-07-13T00:53:53;29.60;35.20
80230;DHT22;69540;42.136;24.742;2023-07-13T00:56:20;29.60;35.20
80230;DHT22;69540;42.136;24.742;2023-07-13T00:58:46;29.60;35.10
80230;DHT22;69540;42.136;24.742;2023-07-13T01:01:12;29.60;35.20
80230;DHT22;69540;42.136;24.742;2023-07-13T01:03:38;29.60;35.20
80230;DHT22;69540;42.136;24.742;2023-07-13T01:06:06;29.60;35.30
80230;DHT22;69540;42.136;24.742;2023-07-13T01:08:32;29.60;35.20
80230;DHT22;69540;42.136;24.742;2023-07-13T01:10:58;29.60;35.20
80230;DHT22;69540;42.136;24.742;2023-07-13T01:13:24;29.60;35.20
80230;DHT22;69540;42.136;24.742;2023-07-13T01:15:52;29.60;35.20
80230;DHT22;69540;42.136;24.742;2023-07-13T01:18:23;29.60;35.20
80230;DHT22;69540;42.136;24.742;2023-07-13T01:23:22;29.60;35.20
80230;DHT22;69540;42.136;24.742;2023-07-13T01:25:49;29.60;35.20
80230;DHT22;69540;42.136;24.742;2023-07-13T01:28:15;29.60;35.20
80230;DHT22;69540;42.136;24.742;2023-07-13T01:30:42;29.60;35.20
80230;DHT22;69540;42.136;24.742;2023-07-13T01:33:11;29.60;35.20
80230;DHT22;69540;42.136;24.742;2023-07-13T01:35:37;29.60;35.20
80230;DHT22;69540;42.136;24.742;2023-07-13T01:38:03;29.60;35.20
80230;DHT22;69540;42.136;24.742;2023-07-13T01:40:29;29.60;35.20
80230;DHT22;69540;42.136;24.742;2023-07-13T01:42:55;29.60;35.20
80230;DHT22;69540;42.136;24.742;2023-07-13T01:45:21;29.60;35.20
80230;DHT22;69540;42.136;24.742;2023-07-13T01:47:47;29.60;35.20
80230;DHT22;69540;42.136;24.742;2023-07-13T01:50:13;29.60;35.20
80230;DHT22;69540;42.136;24.742;2023-07-13T01:52:38;29.60;35.20
80230;DHT22;69540;42.136;24.742;2023-07-13T01:55:04;29.60;35.20
80230;DHT22;69540;42.136;24.742;2023-07-13T01:57:30;29.60;35.20
80230;DHT22;69540;42.136;24.742;2023-07-13T01:59:56;29.60;35.20
80230;DHT22;69540;42.136;24.742;2023-07-13T02:02:22;29.60;35.20
80230;DHT22;69540;42.136;24.742;2023-07-13T02:04:47;29.60;35.20
80230;DHT22;69540;42.136;24.742;2023-07-13T02:07:13;29.60;35.20
80230;DHT22;69540;42.136;24.742;2023-07-13T02:09:40;29.60;35.20
80230;DHT22;69540;42.136;24.742;2023-07-13T02:12:07;29.60;35.20
80230;DHT22;69540;42.136;24.742;2023-07-13T02:14:33;29.60;35.20
80230;DHT22;69540;42.136;24.742;2023-07-13T02:16:59;29.60;35.20
80230;DHT22;69540;42.136;24.742;2023-07-13T02:19:24;29.60;35.20
80230;DHT22;69540;42.136;24.742;2023-07-13T02:21:50;29.60;35.20
80230;DHT22;69540;42.136;24.742;2023-07-13T02:24:16;29.60;35.20
80230;DHT22;69540;42.136;24.742;2023-07-13T02:26:46;29.60;35.20
80230;DHT22;69540;42.136;24.742;2023-07-13T02:29:11;29.60;36.30
80230;DHT22;69540;42.136;24.742;2023-07-13T02:31:37;29.60;35.20
80230;DHT22;69540;42.136;24.742;2023-07-13T02:34:03;29.60;35.20
80230;DHT22;69540;42.136;24.742;2023-07-13T02:36:30;29.60;35.20
80230;DHT22;69540;42.136;24.742;2023-07-13T02:38:56;29.60;35.20
80230;DHT22;69540;42.136;24.742;2023-07-13T02:41:21;29.60;35.20
80230;DHT22;69540;42.136;24.742;2023-07-13T02:43:48;29.60;35.30
80230;DHT22;69540;42.136;24.742;2023-07-13T02:46:14;29.60;36.40
80230;DHT22;69540;42.136;24.742;2023-07-13T02:48:40;29.60;35.20
80230;DHT22;69540;42.136;24.742;2023-07-13T02:51:06;29.60;35.20
80230;DHT22;69540;42.136;24.742;2023-07-13T02:53:33;29.60;35.20
80230;DHT22;69540;42.136;24.742;2023-07-13T02:56:00;29.60;35.30
80230;DHT22;69540;42.136;24.742;2023-07-13T02:58:26;29.60;35.20
80230;DHT22;69540;42.136;24.742;2023-07-13T03:00:52;29.60;35.20
80230;DHT22;69540;42.136;24.742;2023-07-13T03:03:17;29.60;35.30
80230;DHT22;69540;42.136;24.742;2023-07-13T03:05:45;29.60;35.20
80230;DHT22;69540;42.136;24.742;2023-07-13T03:08:15;29.60;35.20
80230;DHT22;69540;42.136;24.742;2023-07-13T03:10:41;29.60;35.20
80230;DHT22;69540;42.136;24.742;2023-07-13T03:13:06;29.60;35.40
80230;DHT22;69540;42.136;24.742;2023-07-13T03:15:32;29.60;35.40
80230;DHT22;69540;42.136;24.742;2023-07-13T03:17:58;29.60;35.40
80230;DHT22;69540;42.136;24.742;2023-07-13T03:20:24;29.60;35.30
80230;DHT22;69540;42.136;24.742;2023-07-13T03:22:49;29.60;35.30
80230;DHT22;69540;42.136;24.742;2023-07-13T03:25:15;29.60;35.30
80230;DHT22;69540;42.136;24.742;2023-07-13T03:27:41;29.60;35.30
80230;DHT22;69540;42.136;24.742;2023-07-13T03:30:07;29.60;35.30
80230;DHT22;69540;42.136;24.742;2023-07-13T03:32:33;29.60;35.30
80230;DHT22;69540;42.136;24.742;2023-07-13T03:34:59;29.60;35.30
80230;DHT22;69540;42.136;24.742;2023-07-13T03:37:25;29.60;35.30
80230;DHT22;69540;42.136;24.742;2023-07-13T03:39:50;29.60;35.30
80230;DHT22;69540;42.136;24.742;2023-07-13T03:42:16;29.60;35.30
80230;DHT22;69540;42.136;24.742;2023-07-13T03:44:42;29.70;36.40
80230;DHT22;69540;42.136;24.742;2023-07-13T03:47:11;29.70;35.30
80230;DHT22;69540;42.136;24.742;2023-07-13T03:49:37;29.70;35.30
80230;DHT22;69540;42.136;24.742;2023-07-13T03:52:03;29.70;35.10
80230;DHT22;69540;42.136;24.742;2023-07-13T03:54:29;29.70;34.60
80230;DHT22;69540;42.136;24.742;2023-07-13T03:56:55;29.70;34.20
80230;DHT22;69540;42.136;24.742;2023-07-13T03:59:21;29.70;34.10
80230;DHT22;69540;42.136;24.742;2023-07-13T04:01:47;29.70;34.20
80230;DHT22;69540;42.136;24.742;2023-07-13T04:04:12;29.70;34.20
80230;DHT22;69540;42.136;24.742;2023-07-13T04:06:38;29.70;34.40
80230;DHT22;69540;42.136;24.742;2023-07-13T04:09:04;29.70;34.40
80230;DHT22;69540;42.136;24.742;2023-07-13T04:11:34;29.70;34.50
80230;DHT22;69540;42.136;24.742;2023-07-13T04:14:01;29.70;34.40
80230;DHT22;69540;42.136;24.742;2023-07-13T04:16:28;29.70;34.10
80230;DHT22;69540;42.136;24.742;2023-07-13T04:18:54;29.60;34.50
80230;DHT22;69540;42.136;24.742;2023-07-13T04:21:29;29.70;34.30
80230;DHT22;69540;42.136;24.742;2023-07-13T04:23:55;29.60;34.20
80230;DHT22;69540;42.136;24.742;2023-07-13T04:26:20;29.60;34.30
80230;DHT22;69540;42.136;24.742;2023-07-13T04:28:47;29.60;34.20
80230;DHT22;69540;42.136;24.742;2023-07-13T04:31:13;29.60;34.20
80230;DHT22;69540;42.136;24.742;2023-07-13T04:33:39;29.60;34.20
80230;DHT22;69540;42.136;24.742;2023-07-13T04:36:05;29.60;34.30
80230;DHT22;69540;42.136;24.742;2023-07-13T04:38:32;29.70;34.50
80230;DHT22;69540;42.136;24.742;2023-07-13T04:41:04;29.60;34.60
80230;DHT22;69540;42.136;24.742;2023-07-13T04:43:30;29.60;34.50
80230;DHT22;69540;42.136;24.742;2023-07-13T04:45:57;29.60;34.50
80230;DHT22;69540;42.136;24.742;2023-07-13T04:48:23;29.70;34.60
80230;DHT22;69540;42.136;24.742;2023-07-13T04:50:55;29.60;34.50
80230;DHT22;69540;42.136;24.742;2023-07-13T04:53:21;29.60;34.40
80230;DHT22;69540;42.136;24.742;2023-07-13T04:55:47;29.70;34.60
80230;DHT22;69540;42.136;24.742;2023-07-13T04:58:12;29.70;34.60
80230;DHT22;69540;42.136;24.742;2023-07-13T05:00:39;29.70;34.70
80230;DHT22;69540;42.136;24.742;2023-07-13T05:03:04;29.70;35.00
80230;DHT22;69540;42.136;24.742;2023-07-13T05:05:31;29.70;35.10
80230;DHT22;69540;42.136;24.742;2023-07-13T05:07:56;29.70;35.10
80230;DHT22;69540;42.136;24.742;2023-07-13T05:10:22;29.70;35.70
80230;DHT22;69540;42.136;24.742;2023-07-13T05:12:50;29.70;35.80
80230;DHT22;69540;42.136;24.742;2023-07-13T05:15:16;29.70;36.20
80230;DHT22;69540;42.136;24.742;2023-07-13T05:17:49;29.70;35.80
80230;DHT22;69540;42.136;24.742;2023-07-13T05:20:15;29.70;35.80
80230;DHT22;69540;42.136;24.742;2023-07-13T05:22:41;29.70;36.10
80230;DHT22;69540;42.136;24.742;2023-07-13T05:25:07;29.70;36.30
80230;DHT22;69540;42.136;24.742;2023-07-13T05:27:34;29.70;36.90
80230;DHT22;69540;42.136;24.742;2023-07-13T05:30:00;29.70;37.70
80230;DHT22;69540;42.136;24.742;2023-07-13T05:32:26;29.70;38.80
80230;DHT22;69540;42.136;24.742;2023-07-13T05:34:52;29.70;38.10
80230;DHT22;69540;42.136;24.742;2023-07-13T05:37:18;29.70;37.30
80230;DHT22;69540;42.136;24.742;2023-07-13T05:39:43;29.70;36.60
80230;DHT22;69540;42.136;24.742;2023-07-13T05:42:09;29.60;35.90
80230;DHT22;69540;42.136;24.742;2023-07-13T05:44:35;29.60;35.40
80230;DHT22;69540;42.136;24.742;2023-07-13T05:47:00;29.50;34.80
80230;DHT22;69540;42.136;24.742;2023-07-13T05:49:26;29.50;34.40
80230;DHT22;69540;42.136;24.742;2023-07-13T05:51:51;29.40;34.00
80230;DHT22;69540;42.136;24.742;2023-07-13T05:54:17;29.40;33.50
80230;DHT22;69540;42.136;24.742;2023-07-13T05:56:43;29.30;33.20
80230;DHT22;69540;42.136;24.742;2023-07-13T05:59:09;29.30;33.00
80230;DHT22;69540;42.136;24.742;2023-07-13T06:01:34;29.20;32.70
80230;DHT22;69540;42.136;24.742;2023-07-13T06:04:00;29.10;32.40
80230;DHT22;69540;42.136;24.742;2023-07-13T06:06:25;29.10;32.20
80230;DHT22;69540;42.136;24.742;2023-07-13T06:08:51;29.10;32.10
80230;DHT22;69540;42.136;24.742;2023-07-13T06:11:20;29.00;31.70
80230;DHT22;69540;42.136;24.742;2023-07-13T06:13:46;29.00;31.50
80230;DHT22;69540;42.136;24.742;2023-07-13T06:16:13;28.90;31.30
80230;DHT22;69540;42.136;24.742;2023-07-13T06:18:39;28.90;31.10
80230;DHT22;69540;42.136;24.742;2023-07-13T06:21:17;28.90;31.00
80230;DHT22;69540;42.136;24.742;2023-07-13T06:23:44;28.90;30.90
80230;DHT22;69540;42.136;24.742;2023-07-13T06:26:11;28.80;30.40
80230;DHT22;69540;42.136;24.742;2023-07-13T06:28:37;28.80;30.20
80230;DHT22;69540;42.136;24.742;2023-07-13T06:31:08;28.70;30.00
80230;DHT22;69540;42.136;24.742;2023-07-13T06:33:34;28.70;30.00
80230;DHT22;69540;42.136;24.742;2023-07-13T06:36:02;28.70;30.00
80230;DHT22;69540;42.136;24.742;2023-07-13T06:38:28;28.70;30.00
80230;DHT22;69540;42.136;24.742;2023-07-13T06:40:53;28.60;29.80
80230;DHT22;69540;42.136;24.742;2023-07-13T06:43:19;28.60;29.90
80230;DHT22;69540;42.136;24.742;2023-07-13T06:45:46;28.60;29.90
80230;DHT22;69540;42.136;24.742;2023-07-13T06:48:15;28.60;29.90
80230;DHT22;69540;42.136;24.742;2023-07-13T06:50:42;28.60;29.90
80230;DHT22;69540;42.136;24.742;2023-07-13T06:53:09;28.60;29.90
80230;DHT22;69540;42.136;24.742;2023-07-13T06:55:35;28.50;29.90
80230;DHT22;69540;42.136;24.742;2023-07-13T06:58:00;28.50;29.90
80230;DHT22;69540;42.136;24.742;2023-07-13T07:00:26;28.50;29.90
80230;DHT22;69540;42.136;24.742;2023-07-13T07:02:52;28.50;29.90
80230;DHT22;69540;42.136;24.742;2023-07-13T07:05:17;28.40;29.80
80230;DHT22;69540;42.136;24.742;2023-07-13T07:07:47;28.40;29.80
80230;DHT22;69540;42.136;24.742;2023-07-13T07:10:13;28.40;29.90
80230;DHT22;69540;42.136;24.742;2023-07-13T07:12:38;28.40;29.90
80230;DHT22;69540;42.136;24.742;2023-07-13T07:15:04;28.40;29.90
80230;DHT22;69540;42.136;24.742;2023-07-13T07:17:30;28.40;29.90
80230;DHT22;69540;42.136;24.742;2023-07-13T07:19:56;28.40;29.90
80230;DHT22;69540;42.136;24.742;2023-07-13T07:22:21;28.40;29.90
80230;DHT22;69540;42.136;24.742;2023-07-13T07:24:47;28.40;29.90
80230;DHT22;69540;42.136;24.742;2023-07-13T07:27:13;28.40;29.80
80230;DHT22;69540;42.136;24.742;2023-07-13T07:29:38;28.40;29.80
80230;DHT22;69540;42.136;24.742;2023-07-13T07:32:04;28.30;29.70
80230;DHT22;69540;42.136;24.742;2023-07-13T07:34:30;28.30;29.80
80230;DHT22;69540;42.136;24.742;2023-07-13T07:37:00;28.30;29.80
80230;DHT22;69540;42.136;24.742;2023-07-13T07:39:26;28.30;29.80
80230;DHT22;69540;42.136;24.742;2023-07-13T07:41:53;28.30;29.90
80230;DHT22;69540;42.136;24.742;2023-07-13T07:44:18;28.30;29.80
80230;DHT22;69540;42.136;24.742;2023-07-13T07:46:44;28.30;29.80
80230;DHT22;69540;42.136;24.742;2023-07-13T07:49:10;28.20;29.70
80230;DHT22;69540;42.136;24.742;2023-07-13T07:51:36;28.30;29.80
80230;DHT22;69540;42.136;24.742;2023-07-13T07:54:03;28.20;29.70
80230;DHT22;69540;42.136;24.742;2023-07-13T07:56:28;28.20;29.70
80230;DHT22;69540;42.136;24.742;2023-07-13T07:58:54;28.20;29.60
80230;DHT22;69540;42.136;24.742;2023-07-13T08:01:20;28.20;29.70
80230;DHT22;69540;42.136;24.742;2023-07-13T08:03:45;28.20;29.70
80230;DHT22;69540;42.136;24.742;2023-07-13T08:06:11;28.10;29.70
80230;DHT22;69540;42.136;24.742;2023-07-13T08:08:36;28.20;30.70
80230;DHT22;69540;42.136;24.742;2023-07-13T08:11:06;28.10;29.80
80230;DHT22;69540;42.136;24.742;2023-07-13T08:13:32;28.10;29.80
80230;DHT22;69540;42.136;24.742;2023-07-13T08:15:59;28.20;29.80
80230;DHT22;69540;42.136;24.742;2023-07-13T08:18:25;28.10;29.80
80230;DHT22;69540;42.136;24.742;2023-07-13T08:20:50;28.10;29.70
80230;DHT22;69540;42.136;24.742;2023-07-13T08:23:17;28.10;30.00
80230;DHT22;69540;42.136;24.742;2023-07-13T08:25:43;28.10;30.10
80230;DHT22;69540;42.136;24.742;2023-07-13T08:28:15;28.10;30.10
80230;DHT22;69540;42.136;24.742;2023-07-13T08:30:40;28.10;30.20
80230;DHT22;69540;42.136;24.742;2023-07-13T08:33:06;28.10;30.20
80230;DHT22;69540;42.136;24.742;2023-07-13T08:35:32;28.10;30.20
80230;DHT22;69540;42.136;24.742;2023-07-13T08:37:57;28.10;30.40
80230;DHT22;69540;42.136;24.742;2023-07-13T08:40:25;28.10;30.30
80230;DHT22;69540;42.136;24.742;2023-07-13T08:42:58;28.00;30.40
80230;DHT22;69540;42.136;24.742;2023-07-13T08:45:32;28.10;30.50
80230;DHT22;69540;42.136;24.742;2023-07-13T08:48:13;28.00;30.40
80230;DHT22;69540;42.136;24.742;2023-07-13T08:50:51;28.00;30.40
80230;DHT22;69540;42.136;24.742;2023-07-13T08:53:21;28.00;30.50
80230;DHT22;69540;42.136;24.742;2023-07-13T08:55:58;28.00;30.10
80230;DHT22;69540;42.136;24.742;2023-07-13T08:58:25;28.00;29.80
80230;DHT22;69540;42.136;24.742;2023-07-13T09:01:12;28.00;29.30
80230;DHT22;69540;42.136;24.742;2023-07-13T09:06:43;28.00;28.60
80230;DHT22;69540;42.136;24.742;2023-07-13T09:09:35;28.00;28.30
80230;DHT22;69540;42.136;24.742;2023-07-13T09:14:49;27.90;27.90
80230;DHT22;69540;42.136;24.742;2023-07-13T09:17:28;27.90;27.70
80230;DHT22;69540;42.136;24.742;2023-07-13T09:20:10;27.90;27.50
80230;DHT22;69540;42.136;24.742;2023-07-13T09:22:42;27.80;27.40
80230;DHT22;69540;42.136;24.742;2023-07-13T09:25:28;27.80;27.30
80230;DHT22;69540;42.136;24.742;2023-07-13T09:28:10;27.80;27.00
80230;DHT22;69540;42.136;24.742;2023-07-13T09:33:08;27.70;27.00
80230;DHT22;69540;42.136;24.742;2023-07-13T09:35:35;27.70;26.90
80230;DHT22;69540;42.136;24.742;2023-07-13T09:38:21;27.70;26.90
80230;DHT22;69540;42.136;24.742;2023-07-13T09:41:03;27.70;26.80
80230;DHT22;69540;42.136;24.742;2023-07-13T09:43:30;27.70;26.70
80230;DHT22;69540;42.136;24.742;2023-07-13T09:45:55;27.70;26.70
80230;DHT22;69540;42.136;24.742;2023-07-13T09:48:21;27.70;26.70
80230;DHT22;69540;42.136;24.742;2023-07-13T09:50:48;27.60;26.60
80230;DHT22;69540;42.136;24.742;2023-07-13T09:53:16;27.60;26.50
80230;DHT22;69540;42.136;24.742;2023-07-13T09:55:45;27.70;26.50
80230;DHT22;69540;42.136;24.742;2023-07-13T10:00:54;27.60;26.50
80230;DHT22;69540;42.136;24.742;2023-07-13T10:03:28;27.60;26.50
80230;DHT22;69540;42.136;24.742;2023-07-13T10:06:09;27.60;26.40
80230;DHT22;69540;42.136;24.742;2023-07-13T10:08:36;27.60;26.50
80230;DHT22;69540;42.136;24.742;2023-07-13T10:13:52;27.60;26.40
80230;DHT22;69540;42.136;24.742;2023-07-13T10:16:19;27.50;26.20
80230;DHT22;69540;42.136;24.742;2023-07-13T10:18:59;27.50;26.20
80230;DHT22;69540;42.136;24.742;2023-07-13T10:21:30;27.50;26.10
80230;DHT22;69540;42.136;24.742;2023-07-13T10:24:05;27.50;26.10
80230;DHT22;69540;42.136;24.742;2023-07-13T10:26:35;27.50;26.10
80230;DHT22;69540;42.136;24.742;2023-07-13T10:29:06;27.50;26.10
80230;DHT22;69540;42.136;24.742;2023-07-13T10:31:34;27.50;26.00
80230;DHT22;69540;42.136;24.742;2023-07-13T10:34:02;27.40;25.90
80230;DHT22;69540;42.136;24.742;2023-07-13T10:36:40;27.40;25.90
80230;DHT22;69540;42.136;24.742;2023-07-13T10:39:15;27.40;26.00
80230;DHT22;69540;42.136;24.742;2023-07-13T10:41:43;27.40;25.90
80230;DHT22;69540;42.136;24.742;2023-07-13T10:44:26;27.40;26.00
80230;DHT22;69540;42.136;24.742;2023-07-13T10:47:02;27.40;26.10
80230;DHT22;69540;42.136;24.742;2023-07-13T10:49:30;27.40;26.00
80230;DHT22;69540;42.136;24.742;2023-07-13T10:51:56;27.40;26.00
80230;DHT22;69540;42.136;24.742;2023-07-13T10:54:33;27.40;26.10
80230;DHT22;69540;42.136;24.742;2023-07-13T10:57:21;27.40;26.00
80230;DHT22;69540;42.136;24.742;2023-07-13T11:02:38;27.40;26.00
80230;DHT22;69540;42.136;24.742;2023-07-13T11:05:26;27.30;26.10
80230;DHT22;69540;42.136;24.742;2023-07-13T11:15:58;27.30;26.00
80230;DHT22;69540;42.136;24.742;2023-07-13T11:18:24;27.30;26.10
80230;DHT22;69540;42.136;24.742;2023-07-13T11:20:51;27.30;26.00
80230;DHT22;69540;42.136;24.742;2023-07-13T11:23:20;27.30;26.10
80230;DHT22;69540;42.136;24.742;2023-07-13T11:25:51;27.30;26.00
80230;DHT22;69540;42.136;24.742;2023-07-13T11:28:22;27.30;26.10
80230;DHT22;69540;42.136;24.742;2023-07-13T11:31:00;27.30;26.10
80230;DHT22;69540;42.136;24.742;2023-07-13T11:36:10;27.30;26.10
80230;DHT22;69540;42.136;24.742;2023-07-13T11:38:43;27.30;26.10
80230;DHT22;69540;42.136;24.742;2023-07-13T11:41:25;27.30;26.10
80230;DHT22;69540;42.136;24.742;2023-07-13T11:44:06;27.30;26.20
80230;DHT22;69540;42.136;24.742;2023-07-13T11:46:32;27.30;26.10
80230;DHT22;69540;42.136;24.742;2023-07-13T11:48:59;27.20;26.10
80230;DHT22;69540;42.136;24.742;2023-07-13T11:51:28;27.20;26.10
80230;DHT22;69540;42.136;24.742;2023-07-13T11:53:55;27.30;26.20
80230;DHT22;69540;42.136;24.742;2023-07-13T11:56:23;27.20;26.30
80230;DHT22;69540;42.136;24.742;2023-07-13T11:58:53;27.20;26.10
80230;DHT22;69540;42.136;24.742;2023-07-13T12:01:22;27.20;26.10
80230;DHT22;69540;42.136;24.742;2023-07-13T12:03:49;27.20;26.10
80230;DHT22;69540;42.136;24.742;2023-07-13T12:06:28;27.20;26.10
80230;DHT22;69540;42.136;24.742;2023-07-13T12:09:01;27.20;26.20
80230;DHT22;69540;42.136;24.742;2023-07-13T12:11:29;27.20;26.20
80230;DHT22;69540;42.136;24.742;2023-07-13T12:13:55;27.20;26.20
80230;DHT22;69540;42.136;24.742;2023-07-13T12:16:32;27.20;26.30
80230;DHT22;69540;42.136;24.742;2023-07-13T12:19:00;27.20;26.30
80230;DHT22;69540;42.136;24.742;2023-07-13T12:21:36;27.20;26.30
80230;DHT22;69540;42.136;24.742;2023-07-13T12:24:03;27.20;26.30
80230;DHT22;69540;42.136;24.742;2023-07-13T12:26:29;27.20;26.30
80230;DHT22;69540;42.136;24.742;2023-07-13T12:28:58;27.20;26.30
80230;DHT22;69540;42.136;24.742;2023-07-13T12:34:07;27.20;26.30
80230;DHT22;69540;42.136;24.742;2023-07-13T12:36:36;27.20;26.60
80230;DHT22;69540;42.136;24.742;2023-07-13T12:41:46;27.20;26.60
80230;DHT22;69540;42.136;24.742;2023-07-13T12:44:15;27.20;26.70
80230;DHT22;69540;42.136;24.742;2023-07-13T12:46:53;27.10;26.70
80230;DHT22;69540;42.136;24.742;2023-07-13T12:49:24;27.20;26.70
80230;DHT22;69540;42.136;24.742;2023-07-13T12:51:50;27.20;26.70
80230;DHT22;69540;42.136;24.742;2023-07-13T12:54:18;27.20;26.80
80230;DHT22;69540;42.136;24.742;2023-07-13T12:56:45;27.20;26.70
80230;DHT22;69540;42.136;24.742;2023-07-13T12:59:19;27.20;26.70
80230;DHT22;69540;42.136;24.742;2023-07-13T13:01:46;27.20;26.70
80230;DHT22;69540;42.136;24.742;2023-07-13T13:04:13;27.20;26.70
80230;DHT22;69540;42.136;24.742;2023-07-13T13:06:39;27.20;26.70
80230;DHT22;69540;42.136;24.742;2023-07-13T13:09:12;27.20;26.70
80230;DHT22;69540;42.136;24.742;2023-07-13T13:11:38;27.20;26.70
80230;DHT22;69540;42.136;24.742;2023-07-13T13:14:05;27.20;26.70
80230;DHT22;69540;42.136;24.742;2023-07-13T13:16:34;27.20;26.70
80230;DHT22;69540;42.136;24.742;2023-07-13T13:19:22;27.20;26.60
80230;DHT22;69540;42.136;24.742;2023-07-13T13:21:50;27.20;26.60
80230;DHT22;69540;42.136;24.742;2023-07-13T13:24:23;27.20;26.60
80230;DHT22;69540;42.136;24.742;2023-07-13T13:26:50;27.20;26.70
80230;DHT22;69540;42.136;24.742;2023-07-13T13:29:19;27.20;26.70
80230;DHT22;69540;42.136;24.742;2023-07-13T13:31:45;27.20;26.70
80230;DHT22;69540;42.136;24.742;2023-07-13T13:34:14;27.20;26.70
80230;DHT22;69540;42.136;24.742;2023-07-13T13:36:41;27.20;26.80
80230;DHT22;69540;42.136;24.742;2023-07-13T13:39:25;27.20;26.80
80230;DHT22;69540;42.136;24.742;2023-07-13T13:41:52;27.20;26.70
80230;DHT22;69540;42.136;24.742;2023-07-13T13:44:19;27.20;26.80
80230;DHT22;69540;42.136;24.742;2023-07-13T13:46:47;27.20;26.80
80230;DHT22;69540;42.136;24.742;2023-07-13T13:49:16;27.20;26.90
80230;DHT22;69540;42.136;24.742;2023-07-13T13:51:42;27.20;26.80
80230;DHT22;69540;42.136;24.742;2023-07-13T13:54:15;27.20;26.80
80230;DHT22;69540;42.136;24.742;2023-07-13T13:56:46;27.30;26.80
80230;DHT22;69540;42.136;24.742;2023-07-13T13:59:12;27.30;26.80
80230;DHT22;69540;42.136;24.742;2023-07-13T14:01:38;27.20;26.70
80230;DHT22;69540;42.136;24.742;2023-07-13T14:04:05;27.20;26.70
80230;DHT22;69540;42.136;24.742;2023-07-13T14:06:33;27.30;26.90
80230;DHT22;69540;42.136;24.742;2023-07-13T14:09:00;27.30;26.90
80230;DHT22;69540;42.136;24.742;2023-07-13T14:11:26;27.30;27.00
80230;DHT22;69540;42.136;24.742;2023-07-13T14:13:57;27.30;27.00
80230;DHT22;69540;42.136;24.742;2023-07-13T14:16:27;27.30;27.00
80230;DHT22;69540;42.136;24.742;2023-07-13T14:18:55;27.30;27.00
80230;DHT22;69540;42.136;24.742;2023-07-13T14:21:24;27.30;27.00
80230;DHT22;69540;42.136;24.742;2023-07-13T14:23:50;27.30;27.10
80230;DHT22;69540;42.136;24.742;2023-07-13T14:26:26;27.30;27.10
80230;DHT22;69540;42.136;24.742;2023-07-13T14:28:55;27.40;27.10
80230;DHT22;69540;42.136;24.742;2023-07-13T14:31:23;27.30;27.00
80230;DHT22;69540;42.136;24.742;2023-07-13T14:33:49;27.40;27.00
80230;DHT22;69540;42.136;24.742;2023-07-13T14:36:19;27.30;26.90
80230;DHT22;69540;42.136;24.742;2023-07-13T14:38:46;27.30;26.90
80230;DHT22;69540;42.136;24.742;2023-07-13T14:41:12;27.30;27.80
80230;DHT22;69540;42.136;24.742;2023-07-13T14:43:38;27.40;27.00
80230;DHT22;69540;42.136;24.742;2023-07-13T14:46:03;27.40;27.00
80230;DHT22;69540;42.136;24.742;2023-07-13T14:48:30;27.40;26.90
80230;DHT22;69540;42.136;24.742;2023-07-13T14:50:57;27.40;26.90
80230;DHT22;69540;42.136;24.742;2023-07-13T14:53:25;27.40;27.00
80230;DHT22;69540;42.136;24.742;2023-07-13T14:55:53;27.40;27.00
80230;DHT22;69540;42.136;24.742;2023-07-13T14:58:19;27.40;27.00
80230;DHT22;69540;42.136;24.742;2023-07-13T15:00:45;27.40;27.00
80230;DHT22;69540;42.136;24.742;2023-07-13T15:03:20;27.30;26.90
80230;DHT22;69540;42.136;24.742;2023-07-13T15:05:47;27.40;26.90
80230;DHT22;69540;42.136;24.742;2023-07-13T15:08:13;27.40;26.90
80230;DHT22;69540;42.136;24.742;2023-07-13T15:10:40;27.40;26.90
80230;DHT22;69540;42.136;24.742;2023-07-13T15:13:16;27.40;26.90
80230;DHT22;69540;42.136;24.742;2023-07-13T15:15:49;27.40;26.80
80230;DHT22;69540;42.136;24.742;2023-07-13T15:18:17;27.40;26.90
80230;DHT22;69540;42.136;24.742;2023-07-13T15:20:45;27.40;26.90
80230;DHT22;69540;42.136;24.742;2023-07-13T15:23:13;27.40;27.00
80230;DHT22;69540;42.136;24.742;2023-07-13T15:25:40;27.40;26.90
80230;DHT22;69540;42.136;24.742;2023-07-13T15:28:06;27.40;26.90
80230;DHT22;69540;42.136;24.742;2023-07-13T15:30:41;27.40;26.90
80230;DHT22;69540;42.136;24.742;2023-07-13T15:33:30;27.40;26.80
80230;DHT22;69540;42.136;24.742;2023-07-13T15:35:56;27.40;26.80
80230;DHT22;69540;42.136;24.742;2023-07-13T15:38:29;27.50;26.90
80230;DHT22;69540;42.136;24.742;2023-07-13T15:40:55;27.50;26.80
80230;DHT22;69540;42.136;24.742;2023-07-13T15:43:22;27.40;26.70
80230;DHT22;69540;42.136;24.742;2023-07-13T15:45:48;27.50;26.90
80230;DHT22;69540;42.136;24.742;2023-07-13T15:48:18;27.50;27.00
80230;DHT22;69540;42.136;24.742;2023-07-13T15:50:49;27.40;27.10
80230;DHT22;69540;42.136;24.742;2023-07-13T15:53:23;27.50;27.10
80230;DHT22;69540;42.136;24.742;2023-07-13T15:55:49;27.50;27.10
80230;DHT22;69540;42.136;24.742;2023-07-13T15:58:16;27.60;27.30